Time;durP1;ratioP1;P1;durP2;ratioP2;P2;SDS_P1;SDS_P2;PMS_P1;PMS_P2;Temp;Humidity;BMP_temperature;BMP_pressure;BME280_temperature;BME280_humidity;BME280_pressure;Samples;Min_cycle;Max_cycle;Signal;HPM_P1;HPM_P2
2022/12/18 00:01:21;;;;;;;0.50;0.45;;;;;;;-3.54;95.36;102922.50;5075044;27;103317;-32
2022/12/18 00:03:48;;;;;;;1.25;0.82;;;;;;;-3.56;95.29;102914.50;5075213;27;96614;-31
2022/12/18 00:06:14;;;;;;;2.65;1.25;;;;;;;-3.56;95.10;102914.50;5075014;27;96859;-31
2022/12/18 00:08:43;;;;;;;0.55;0.55;;;;;;;-3.53;95.36;102919.00;5075002;27;101459;-32
2022/12/18 00:11:13;;;;;;;0.28;0.28;;;;;;;-3.48;95.32;102913.00;5075303;27;101227;-32
2022/12/18 00:13:39;;;;;;;0.20;0.15;;;;;;;-3.47;95.12;102904.19;5093603;27;96475;-31
2022/12/18 00:16:08;;;;;;;1.10;1.00;;;;;;;-3.41;95.03;102916.72;5075111;27;96736;-32
2022/12/18 00:18:34;;;;;;;0.65;0.55;;;;;;;-3.39;95.54;102916.75;5074033;27;100816;-32
2022/12/18 00:21:01;;;;;;;2.35;1.45;;;;;;;-3.45;94.84;102906.91;5093081;27;99262;-31
2022/12/18 00:23:27;;;;;;;0.60;0.60;;;;;;;-3.49;94.75;102905.91;5075040;27;96562;-31
2022/12/18 00:25:53;;;;;;;0.75;0.75;;;;;;;-3.52;94.86;102908.47;5074390;27;97694;-32
2022/12/18 00:28:19;;;;;;;1.20;0.75;;;;;;;-3.56;94.87;102909.22;5093165;27;99366;-31
2022/12/18 00:30:45;;;;;;;2.78;1.23;;;;;;;-3.59;95.36;102903.84;5093212;27;99758;-31
2022/12/18 00:33:10;;;;;;;0.45;0.45;;;;;;;-3.66;95.25;102910.69;5093451;27;97201;-31
2022/12/18 00:35:35;;;;;;;2.20;1.60;;;;;;;-3.70;95.58;102898.19;5093619;27;96793;-32
2022/12/18 00:38:01;;;;;;;3.40;0.88;;;;;;;-3.67;95.62;102905.34;5093294;27;97889;-32
2022/12/18 00:40:26;;;;;;;0.65;0.65;;;;;;;-3.68;95.83;102906.19;5093356;27;97853;-31
2022/12/18 00:42:58;;;;;;;0.40;0.40;;;;;;;-3.67;96.05;102905.34;5092692;27;96483;-32
2022/12/18 00:45:29;;;;;;;1.17;1.08;;;;;;;-3.68;95.67;102901.78;5074636;27;97039;-31
2022/12/18 00:47:56;;;;;;;0.50;0.50;;;;;;;-3.72;95.79;102907.88;5074359;27;100812;-31
2022/12/18 00:50:22;;;;;;;0.93;0.88;;;;;;;-3.69;96.10;102915.00;5074542;27;101133;-32
2022/12/18 00:52:48;;;;;;;0.60;0.60;;;;;;;-3.69;96.13;102912.38;5074775;27;96805;-31
2022/12/18 00:55:14;;;;;;;0.20;0.20;;;;;;;-3.64;96.30;102913.41;5093405;27;96794;-32
2022/12/18 00:57:39;;;;;;;0.50;0.50;;;;;;;-3.59;96.16;102917.06;5074526;27;100512;-31
2022/12/18 01:00:08;;;;;;;0.70;0.43;;;;;;;-3.55;95.82;102921.63;5093394;27;97914;-32
2022/12/18 01:02:33;;;;;;;0.22;0.22;;;;;;;-3.48;95.67;102906.78;5074379;27;97152;-32
2022/12/18 01:04:59;;;;;;;0.20;0.20;;;;;;;-3.50;95.53;102908.53;5096940;27;96906;-31
2022/12/18 01:07:24;;;;;;;1.95;0.75;;;;;;;-3.50;95.47;102905.88;5096278;27;97961;-32
2022/12/18 01:09:49;;;;;;;0.25;0.25;;;;;;;-3.55;95.41;102911.03;5096540;27;97344;-31
2022/12/18 01:12:15;;;;;;;0.60;0.60;;;;;;;-3.56;95.34;102913.63;5096755;27;96570;-31
2022/12/18 01:14:40;;;;;;;1.88;1.08;;;;;;;-3.62;95.31;102917.00;5096731;27;96786;-32
2022/12/18 01:17:05;;;;;;;0.40;0.40;;;;;;;-3.59;95.30;102918.84;5096363;27;97934;-31
2022/12/18 01:19:31;;;;;;;0.28;0.28;;;;;;;-3.55;95.65;102928.66;5096122;27;100513;-32
2022/12/18 01:21:56;;;;;;;0.50;0.45;;;;;;;-3.53;95.50;102933.13;5096629;27;96611;-31
2022/12/18 01:24:22;;;;;;;0.60;0.60;;;;;;;-3.51;95.26;102927.91;5095949;27;96893;-32
2022/12/18 01:26:47;;;;;;;0.57;0.57;;;;;;;-3.51;95.28;102920.84;5096227;27;98508;-31
2022/12/18 01:29:12;;;;;;;0.20;0.20;;;;;;;-3.48;95.16;102922.69;5096169;27;99169;-31
2022/12/18 01:31:37;;;;;;;0.20;0.20;;;;;;;-3.44;94.80;102913.97;5095519;27;96636;-31
2022/12/18 01:34:05;;;;;;;0.00;0.00;;;;;;;-3.44;95.04;102919.28;5096429;27;96792;-31
2022/12/18 01:36:33;;;;;;;0.38;0.38;;;;;;;-3.44;94.84;102925.47;5077554;27;101430;-31
2022/12/18 01:39:04;;;;;;;0.47;0.47;;;;;;;-3.41;94.68;102922.00;5077302;27;103930;-31
2022/12/18 01:44:53;;;;;;;0.05;0.05;;;;;;;-3.47;94.35;102925.38;5012095;28;98633;-33
2022/12/18 01:47:44;;;;;;;0.10;0.10;;;;;;;-3.48;94.42;102934.19;5012017;28;99340;-32
2022/12/18 01:50:31;;;;;;;0.20;0.20;;;;;;;-3.49;94.51;102935.03;5066990;27;98186;-31
2022/12/18 01:53:02;;;;;;;0.20;0.20;;;;;;;-3.48;94.60;102935.91;5096232;27;96487;-31
2022/12/18 01:55:35;;;;;;;0.30;0.22;;;;;;;-3.50;94.39;102949.16;5077306;27;96609;-31
2022/12/18 01:58:01;;;;;;;0.00;0.00;;;;;;;-3.49;94.84;102947.38;5076672;27;100840;-31
2022/12/18 02:00:27;;;;;;;0.17;0.17;;;;;;;-3.45;94.60;102946.63;5095751;27;98330;-32
2022/12/18 02:02:54;;;;;;;0.70;0.70;;;;;;;-3.44;94.69;102948.41;5077048;27;96728;-31
2022/12/18 02:05:39;;;;;;;0.17;0.17;;;;;;;-3.39;94.68;102957.41;5077245;27;96809;-31
2022/12/18 02:08:16;;;;;;;0.00;0.00;;;;;;;-3.43;94.40;102948.47;5076892;27;100778;-31
2022/12/18 02:10:51;;;;;;;0.65;0.25;;;;;;;-3.42;94.29;102947.59;5077006;27;101243;-31
2022/12/18 02:13:44;;;;;;;0.03;0.03;;;;;;;-3.45;94.54;102933.38;5077144;27;96669;-31
2022/12/18 02:16:23;;;;;;;0.10;0.10;;;;;;;-3.42;94.45;102933.47;5076773;27;96790;-32
2022/12/18 02:18:53;;;;;;;0.20;0.20;;;;;;;-3.46;94.28;102936.88;5076673;27;100816;-32
2022/12/18 02:21:29;;;;;;;0.52;0.50;;;;;;;-3.46;94.47;102942.16;5095181;27;99880;-33
2022/12/18 02:24:17;;;;;;;0.20;0.20;;;;;;;-3.48;94.60;102944.78;5076205;27;97484;-32
2022/12/18 02:26:53;;;;;;;0.00;0.00;;;;;;;-3.52;94.49;102929.66;5076603;27;96799;-33
2022/12/18 02:29:27;;;;;;;0.10;0.10;;;;;;;-3.50;94.26;102937.66;5076502;27;101172;-32
2022/12/18 02:31:57;;;;;;;0.22;0.22;;;;;;;-3.53;94.40;102925.19;5094923;27;98629;-30
2022/12/18 02:34:28;;;;;;;0.13;0.13;;;;;;;-3.52;94.63;102936.72;5076498;27;96607;-31
2022/12/18 02:36:56;;;;;;;0.43;0.43;;;;;;;-3.56;94.46;102941.00;5076590;27;96763;-31
2022/12/18 02:39:23;;;;;;;0.45;0.35;;;;;;;-3.55;94.41;102944.53;5094821;27;99395;-31
2022/12/18 02:41:50;;;;;;;0.22;0.22;;;;;;;-3.60;94.21;102948.78;5076669;27;100497;-31
2022/12/18 02:44:15;;;;;;;0.28;0.28;;;;;;;-3.64;94.21;102942.53;5076633;27;96652;-33
2022/12/18 02:46:44;;;;;;;0.30;0.30;;;;;;;-3.60;94.14;102931.16;5095127;27;96746;-33
2022/12/18 02:49:34;;;;;;;0.15;0.15;;;;;;;-3.59;94.33;102927.66;5094504;27;98042;-33
2022/12/18 02:51:59;;;;;;;0.17;0.03;;;;;;;-3.59;94.20;102914.44;5094884;27;97781;-31
2022/12/18 02:54:53;;;;;;;0.22;0.22;;;;;;;-3.66;93.57;102918.63;5095240;27;96530;-31
2022/12/18 02:57:23;;;;;;;0.05;0.03;;;;;;;-3.70;94.03;102911.44;5094824;27;96523;-31
2022/12/18 03:00:17;;;;;;;0.03;0.03;;;;;;;-3.79;93.96;102910.25;5095082;27;97485;-31
2022/12/18 03:02:50;;;;;;;0.00;0.00;;;;;;;-3.86;94.35;102902.16;5075997;27;100874;-32
2022/12/18 03:05:33;;;;;;;0.20;0.15;;;;;;;-3.82;93.82;102902.22;5076089;27;97461;-31
2022/12/18 03:08:13;;;;;;;0.08;0.08;;;;;;;-3.85;94.33;102900.38;5095596;27;96464;-31
2022/12/18 03:10:45;;;;;;;0.90;0.20;;;;;;;-3.95;93.97;102891.28;5076191;27;100849;-32
2022/12/18 03:13:15;;;;;;;0.15;0.15;;;;;;;-3.96;93.85;102884.16;5094654;27;98773;-32
2022/12/18 03:15:48;;;;;;;0.22;0.22;;;;;;;-3.94;93.78;102878.94;5075163;27;97412;-31
2022/12/18 03:18:19;;;;;;;0.20;0.20;;;;;;;-3.95;94.11;102867.44;5076086;27;96723;-32
2022/12/18 03:20:48;;;;;;;0.90;0.30;;;;;;;-3.93;94.19;102878.09;5094475;27;98293;-31
2022/12/18 03:23:22;;;;;;;0.17;0.17;;;;;;;-3.98;93.83;102872.66;5094147;27;97922;-32
2022/12/18 03:25:51;;;;;;;0.20;0.20;;;;;;;-4.06;93.99;102868.84;5075015;27;96760;-32
2022/12/18 03:28:21;;;;;;;0.10;0.10;;;;;;;-4.01;93.85;102872.53;5093245;27;96867;-32
2022/12/18 03:30:50;;;;;;;0.00;0.00;;;;;;;-4.13;93.86;102866.88;5075583;27;101379;-32
2022/12/18 03:33:25;;;;;;;0.20;0.20;;;;;;;-4.17;93.66;102868.53;5075780;27;100965;-31
2022/12/18 03:35:50;;;;;;;0.17;0.17;;;;;;;-4.18;93.50;102863.19;5075738;27;97204;-32
2022/12/18 03:38:16;;;;;;;0.20;0.15;;;;;;;-4.15;93.74;102865.91;5094058;27;96834;-32
2022/12/18 03:40:52;;;;;;;0.08;0.08;;;;;;;-4.20;93.92;102864.88;5093332;27;97855;-32
2022/12/18 03:43:28;;;;;;;0.03;0.03;;;;;;;-4.14;94.06;102865.97;5094092;27;97758;-33
2022/12/18 03:46:02;;;;;;;0.00;0.00;;;;;;;-4.15;93.96;102872.09;5075609;27;96679;-32
2022/12/18 03:48:31;;;;;;;0.25;0.25;;;;;;;-4.13;93.62;102869.50;5075510;27;96773;-31
2022/12/18 03:51:05;;;;;;;0.10;0.10;;;;;;;-4.11;93.68;102875.75;5093830;27;98048;-34
2022/12/18 03:53:47;;;;;;;0.13;0.13;;;;;;;-4.16;93.60;102858.84;5075437;27;100850;-31
2022/12/18 03:56:14;;;;;;;0.47;0.35;;;;;;;-4.07;93.01;102867.06;5075557;27;96682;-32
2022/12/18 03:58:42;;;;;;;0.28;0.20;;;;;;;-4.07;93.34;102862.66;5075658;27;96962;-33
2022/12/18 04:01:13;;;;;;;0.10;0.08;;;;;;;-4.16;92.77;102861.50;5075301;27;101488;-32
2022/12/18 04:03:40;;;;;;;0.13;0.13;;;;;;;-4.13;93.16;102861.56;5074773;27;100452;-33
2022/12/18 04:06:06;;;;;;;0.40;0.40;;;;;;;-4.12;92.63;102864.28;5074741;27;96980;-32
2022/12/18 04:08:34;;;;;;;0.00;0.00;;;;;;;-4.08;92.35;102867.91;5075265;27;97124;-32
2022/12/18 04:11:00;;;;;;;0.03;0.03;;;;;;;-4.10;92.41;102865.22;5074988;27;101403;-32
2022/12/18 04:13:32;;;;;;;0.30;0.30;;;;;;;-4.12;92.05;102873.97;5093574;27;97866;-31
2022/12/18 04:15:58;;;;;;;0.17;0.17;;;;;;;-4.18;91.86;102869.38;5074913;27;96500;-32
2022/12/18 04:18:23;;;;;;;0.15;0.15;;;;;;;-4.17;92.24;102873.81;5093363;27;99055;-31
2022/12/18 04:20:48;;;;;;;0.30;0.25;;;;;;;-4.18;91.59;102868.47;5093125;27;99263;-31
2022/12/18 04:23:13;;;;;;;0.45;0.45;;;;;;;-4.21;91.83;102869.28;5093636;27;98617;-31
2022/12/18 04:25:39;;;;;;;0.13;0.13;;;;;;;-4.16;91.84;102877.38;5093432;27;96450;-33
2022/12/18 04:28:04;;;;;;;0.30;0.30;;;;;;;-4.18;91.45;102871.13;5093492;27;96739;-32
2022/12/18 04:30:30;;;;;;;0.00;0.00;;;;;;;-4.21;91.28;102881.63;5093059;27;97969;-31
2022/12/18 04:32:55;;;;;;;0.00;0.00;;;;;;;-4.25;91.37;102871.78;5093325;27;97602;-32
2022/12/18 04:35:20;;;;;;;0.10;0.10;;;;;;;-4.23;91.16;102867.44;5093371;27;101177;-31
2022/12/18 04:37:46;;;;;;;0.00;0.00;;;;;;;-4.28;90.80;102875.22;5093608;27;100507;-31
2022/12/18 04:40:12;;;;;;;0.00;0.00;;;;;;;-4.30;90.61;102864.56;5096959;27;104561;-33
2022/12/18 04:42:39;;;;;;;0.50;0.47;;;;;;;-4.31;91.21;102867.19;5078283;27;99695;-31
2022/12/18 04:45:05;;;;;;;0.15;0.15;;;;;;;-4.33;90.77;102874.19;5078587;27;96595;-32
2022/12/18 04:47:30;;;;;;;0.00;0.00;;;;;;;-4.33;91.14;102877.72;5097339;27;96805;-31
2022/12/18 04:49:56;;;;;;;0.00;0.00;;;;;;;-4.35;90.94;102873.22;5096902;27;98048;-31
2022/12/18 04:52:21;;;;;;;0.10;0.10;;;;;;;-4.33;91.06;102887.41;5096338;27;110482;-32
2022/12/18 04:54:46;;;;;;;0.30;0.30;;;;;;;-4.35;91.13;102875.88;5096526;27;96572;-32
2022/12/18 04:57:12;;;;;;;0.00;0.00;;;;;;;-4.35;90.90;102881.16;5096764;27;96771;-31
2022/12/18 04:59:37;;;;;;;0.40;0.40;;;;;;;-4.36;90.76;102876.69;5096825;27;98020;-33
2022/12/18 05:02:02;;;;;;;0.28;0.28;;;;;;;-4.38;91.03;102866.09;5096492;27;97814;-32
2022/12/18 05:04:28;;;;;;;0.17;0.17;;;;;;;-4.39;90.46;102860.75;5096850;27;96645;-33
2022/12/18 05:06:53;;;;;;;0.13;0.13;;;;;;;-4.37;91.02;102867.88;5096631;27;99172;-31
2022/12/18 05:09:18;;;;;;;0.10;0.10;;;;;;;-4.38;90.37;102870.50;5096329;27;99384;-32
2022/12/18 05:11:44;;;;;;;0.28;0.25;;;;;;;-4.40;90.47;102882.75;5097198;27;104047;-32
2022/12/18 05:14:09;;;;;;;0.43;0.43;;;;;;;-4.41;90.46;102883.59;5096627;27;98545;-32
2022/12/18 05:16:34;;;;;;;0.35;0.35;;;;;;;-4.42;90.56;102876.53;5096330;27;98794;-32
2022/12/18 05:19:00;;;;;;;0.00;0.00;;;;;;;-4.45;90.22;102865.84;5095853;27;97868;-32
2022/12/18 05:21:25;;;;;;;0.52;0.43;;;;;;;-4.45;90.48;102879.06;5096480;27;97502;-31
2022/12/18 05:23:50;;;;;;;0.10;0.10;;;;;;;-4.45;90.82;102868.50;5096378;27;96672;-31
2022/12/18 05:26:18;;;;;;;0.00;0.00;;;;;;;-4.45;90.50;102869.38;5095737;27;96955;-31
2022/12/18 05:28:43;;;;;;;0.00;0.00;;;;;;;-4.49;90.52;102865.72;5077577;27;101399;-31
2022/12/18 05:31:09;;;;;;;0.45;0.30;;;;;;;-4.50;90.21;102860.41;5095868;27;99505;-31
2022/12/18 05:33:35;;;;;;;0.03;0.03;;;;;;;-4.53;90.14;102861.22;5096480;27;96609;-32
2022/12/18 05:36:06;;;;;;;0.00;0.00;;;;;;;-4.53;90.46;102858.56;5096483;27;96910;-31
2022/12/18 05:38:33;;;;;;;0.25;0.25;;;;;;;-4.50;89.92;102857.75;5077341;27;101010;-32
2022/12/18 05:40:59;;;;;;;0.22;0.22;;;;;;;-4.55;90.18;102865.53;5077229;27;100874;-32
2022/12/18 05:43:25;;;;;;;0.10;0.10;;;;;;;-4.58;90.17;102857.47;5095717;27;96454;-32
2022/12/18 05:45:52;;;;;;;0.20;0.20;;;;;;;-4.56;90.59;102873.41;5077656;27;96730;-31
2022/12/18 05:48:18;;;;;;;0.20;0.20;;;;;;;-4.59;90.50;102862.75;5077262;27;100824;-32
2022/12/18 05:50:48;;;;;;;0.08;0.08;;;;;;;-4.58;90.11;102861.88;5094827;27;98303;-31
2022/12/18 05:53:15;;;;;;;0.00;0.00;;;;;;;-4.58;90.06;102862.78;5077399;27;96647;-32
2022/12/18 05:55:41;;;;;;;0.00;0.00;;;;;;;-4.64;89.62;102862.59;5077364;27;96831;-32
2022/12/18 05:58:08;;;;;;;0.25;0.25;;;;;;;-4.68;90.30;102857.16;5076971;27;100838;-31
2022/12/18 06:00:39;;;;;;;0.00;0.00;;;;;;;-4.77;89.66;102842.75;5077496;27;100772;-33
2022/12/18 06:03:05;;;;;;;0.20;0.20;;;;;;;-4.75;89.98;102848.09;5077305;27;96562;-32
2022/12/18 06:05:38;;;;;;;0.10;0.10;;;;;;;-4.77;90.10;102852.44;5077318;27;96814;-33
2022/12/18 06:08:04;;;;;;;0.75;0.75;;;;;;;-4.77;90.18;102845.41;5076556;27;100894;-32
2022/12/18 06:10:29;;;;;;;0.00;0.00;;;;;;;-4.77;89.90;102844.50;5095696;27;98064;-31
2022/12/18 06:12:54;;;;;;;0.00;0.00;;;;;;;-4.78;90.02;102838.31;5095518;27;96700;-32
2022/12/18 06:15:20;;;;;;;0.70;0.32;;;;;;;-4.78;89.46;102838.31;5095463;27;102907;-32
2022/12/18 06:17:45;;;;;;;0.00;0.00;;;;;;;-4.79;89.77;102828.63;5095008;27;113058;-32
2022/12/18 06:20:10;;;;;;;0.63;0.43;;;;;;;-4.79;90.08;102822.41;5095136;27;105032;-31
2022/12/18 06:22:36;;;;;;;0.00;0.00;;;;;;;-4.79;89.80;102815.41;5095532;27;96614;-32
2022/12/18 06:25:01;;;;;;;0.00;0.00;;;;;;;-4.83;89.82;102808.22;5095513;27;96881;-32
2022/12/18 06:27:26;;;;;;;0.00;0.00;;;;;;;-4.88;89.73;102812.44;5095167;27;98139;-32
2022/12/18 06:29:52;;;;;;;0.08;0.08;;;;;;;-4.88;89.94;102828.31;5095352;27;97829;-32
2022/12/18 06:32:17;;;;;;;0.17;0.17;;;;;;;-4.87;89.95;102838.00;5095183;27;98025;-32
2022/12/18 06:34:42;;;;;;;0.13;0.13;;;;;;;-4.86;90.02;102828.34;5095354;27;96818;-33
2022/12/18 06:37:08;;;;;;;0.08;0.08;;;;;;;-4.86;89.72;102826.63;5095292;27;97481;-32
2022/12/18 06:39:33;;;;;;;0.00;0.00;;;;;;;-4.90;89.76;102824.69;5095079;27;99187;-34
2022/12/18 06:41:58;;;;;;;0.00;0.00;;;;;;;-5.00;89.23;102819.97;5094990;27;102202;-33
2022/12/18 06:44:23;;;;;;;0.00;0.00;;;;;;;-4.99;89.47;102819.09;5095151;27;104194;-32
2022/12/18 06:46:49;;;;;;;0.20;0.20;;;;;;;-5.05;89.65;102814.50;5094716;27;107853;-32
2022/12/18 06:49:15;;;;;;;0.00;0.00;;;;;;;-4.98;89.75;102820.88;5095120;27;107048;-32
2022/12/18 06:51:41;;;;;;;0.05;0.05;;;;;;;-4.99;89.84;102816.47;5095094;27;96657;-31
2022/12/18 06:54:07;;;;;;;0.47;0.45;;;;;;;-5.00;89.38;102809.38;5095147;27;96829;-32
2022/12/18 06:56:32;;;;;;;0.05;0.05;;;;;;;-5.00;89.91;102789.16;5094279;27;97935;-31
2022/12/18 06:58:57;;;;;;;0.38;0.38;;;;;;;-5.00;89.38;102790.91;5094511;27;102145;-31
2022/12/18 07:01:22;;;;;;;0.43;0.30;;;;;;;-5.03;89.51;102783.78;5094533;27;96442;-31
2022/12/18 07:03:53;;;;;;;0.08;0.08;;;;;;;-5.01;90.02;102791.72;5094622;27;96777;-32
2022/12/18 07:06:21;;;;;;;0.10;0.10;;;;;;;-5.04;89.20;102781.06;5094555;27;99304;-32
2022/12/18 07:08:47;;;;;;;0.10;0.10;;;;;;;-5.11;89.52;102785.22;5076102;27;100558;-33
2022/12/18 07:11:14;;;;;;;0.20;0.20;;;;;;;-5.15;89.26;102780.69;5076214;27;96668;-32
2022/12/18 07:13:39;;;;;;;0.00;0.00;;;;;;;-5.19;89.30;102774.41;5076466;27;96825;-32
2022/12/18 07:16:06;;;;;;;0.00;0.00;;;;;;;-5.21;88.53;102768.19;5076254;27;97386;-32
2022/12/18 07:18:32;;;;;;;0.00;0.00;;;;;;;-5.23;88.71;102748.72;5094617;27;97995;-31
2022/12/18 07:20:57;;;;;;;0.00;0.00;;;;;;;-5.23;89.05;102747.84;5093904;27;96601;-32
2022/12/18 07:23:22;;;;;;;0.00;0.00;;;;;;;-5.35;89.00;102727.19;5094122;27;105210;-32
2022/12/18 07:25:48;;;;;;;0.05;0.05;;;;;;;-5.34;88.65;102729.91;5093665;27;97922;-33
2022/12/18 07:28:14;;;;;;;0.30;0.30;;;;;;;-5.31;89.32;102721.19;5093743;27;103165;-31
2022/12/18 07:30:39;;;;;;;0.00;0.00;;;;;;;-5.29;89.37;102706.28;5094412;27;96700;-32
2022/12/18 07:33:05;;;;;;;0.15;0.15;;;;;;;-5.28;89.06;102713.34;5094524;27;96731;-32
2022/12/18 07:35:30;;;;;;;0.00;0.00;;;;;;;-5.31;89.11;102710.63;5093933;27;99839;-33
2022/12/18 07:37:55;;;;;;;0.00;0.00;;;;;;;-5.34;88.83;102715.78;5094608;27;97334;-32
2022/12/18 07:40:21;;;;;;;0.17;0.17;;;;;;;-5.30;89.56;102719.44;5093822;27;96630;-32
2022/12/18 07:42:46;;;;;;;0.20;0.10;;;;;;;-5.29;89.54;102727.41;5093924;27;102322;-32
2022/12/18 07:45:11;;;;;;;0.47;0.30;;;;;;;-5.25;89.49;102734.56;5093349;27;99115;-33
2022/12/18 07:47:37;;;;;;;0.00;0.00;;;;;;;-5.24;89.46;102730.22;5094099;27;96884;-32
2022/12/18 07:50:04;;;;;;;0.00;0.00;;;;;;;-5.28;88.96;102733.59;5094228;27;96666;-32
2022/12/18 07:52:29;;;;;;;0.00;0.00;;;;;;;-5.26;88.99;102732.78;5075514;27;96801;-33
2022/12/18 07:54:55;;;;;;;0.22;0.22;;;;;;;-5.26;89.34;102723.97;5093386;27;99558;-32
2022/12/18 07:57:20;;;;;;;0.00;0.00;;;;;;;-5.27;89.40;102720.41;5093660;27;99218;-33
2022/12/18 07:59:46;;;;;;;0.00;0.00;;;;;;;-5.27;88.98;102707.22;5094314;27;96596;-31
2022/12/18 08:02:11;;;;;;;0.00;0.00;;;;;;;-5.26;89.40;102716.06;5094027;27;96843;-32
2022/12/18 08:04:37;;;;;;;0.10;0.10;;;;;;;-5.27;88.79;102720.41;5093519;27;98815;-33
2022/12/18 08:07:02;;;;;;;0.05;0.05;;;;;;;-5.29;88.92;102722.13;5093558;27;99652;-32
2022/12/18 08:09:27;;;;;;;0.20;0.08;;;;;;;-5.27;89.09;102722.16;5093301;27;96655;-32
2022/12/18 08:11:53;;;;;;;0.08;0.08;;;;;;;-5.34;88.15;102711.41;5093912;27;96853;-32
2022/12/18 08:14:18;;;;;;;0.00;0.00;;;;;;;-5.35;88.46;102717.53;5092824;27;99217;-32
2022/12/18 08:16:43;;;;;;;0.05;0.05;;;;;;;-5.34;88.48;102721.06;5093593;27;103992;-33
2022/12/18 08:19:09;;;;;;;0.00;0.00;;;;;;;-5.34;88.10;102719.34;5093245;27;96910;-31
2022/12/18 08:21:34;;;;;;;0.00;0.00;;;;;;;-5.34;88.59;102697.28;5075107;27;96809;-33
2022/12/18 08:24:01;;;;;;;0.80;0.20;;;;;;;-5.31;88.46;102699.13;5093113;27;97753;-32
2022/12/18 08:26:29;;;;;;;0.00;0.00;;;;;;;-5.36;88.56;102693.72;5093656;27;97914;-32
2022/12/18 08:28:55;;;;;;;0.40;0.25;;;;;;;-5.31;88.33;102702.69;5074963;27;96713;-31
2022/12/18 08:31:21;;;;;;;0.00;0.00;;;;;;;-5.28;88.62;102702.78;5074866;27;99267;-31
2022/12/18 08:33:52;;;;;;;0.00;0.00;;;;;;;-5.30;88.75;102704.47;5074145;27;101339;-33
2022/12/18 08:36:18;;;;;;;0.13;0.13;;;;;;;-5.25;88.65;102716.09;5074685;27;100832;-32
2022/12/18 08:38:44;;;;;;;0.10;0.10;;;;;;;-5.20;88.48;102710.97;5074850;27;96745;-31
2022/12/18 08:41:11;;;;;;;0.00;0.00;;;;;;;-5.18;88.48;102704.88;5093657;27;96875;-31
2022/12/18 08:46:23;;;;;;;0.08;0.08;;;;;;;-5.03;88.47;102727.34;5093843;27;97028;-31
2022/12/18 08:48:51;;;;;;;0.00;0.00;;;;;;;-5.04;88.87;102723.81;5074708;27;96558;-32
2022/12/18 08:51:17;;;;;;;0.00;0.00;;;;;;;-5.04;88.72;102734.41;5074971;27;96734;-33
2022/12/18 08:53:44;;;;;;;0.38;0.30;;;;;;;-4.97;88.51;102751.34;5074546;27;100962;-33
2022/12/18 08:56:10;;;;;;;0.00;0.00;;;;;;;-4.94;88.49;102759.38;5074602;27;100757;-32
2022/12/18 08:58:35;;;;;;;0.00;0.00;;;;;;;-4.91;88.60;102757.75;5074473;27;97551;-31
2022/12/18 09:01:02;;;;;;;0.10;0.10;;;;;;;-4.86;88.35;102760.53;5093392;27;96729;-32
2022/12/18 09:03:28;;;;;;;0.00;0.00;;;;;;;-4.86;88.26;102762.25;5074165;27;100950;-31
2022/12/18 09:05:53;;;;;;;0.00;0.00;;;;;;;-4.83;88.27;102751.81;5092978;27;103842;-32
2022/12/18 09:08:18;;;;;;;0.00;0.00;;;;;;;-4.74;88.05;102755.66;5092962;27;96462;-32
2022/12/18 09:10:46;;;;;;;0.00;0.00;;;;;;;-4.74;88.21;102750.38;5093102;27;96828;-31
2022/12/18 09:13:12;;;;;;;0.00;0.00;;;;;;;-4.73;88.21;102741.56;5074308;27;101378;-32
2022/12/18 09:15:42;;;;;;;0.45;0.20;;;;;;;-4.73;87.88;102727.47;5074473;27;101431;-33
2022/12/18 09:18:08;;;;;;;0.00;0.00;;;;;;;-4.71;88.15;102726.66;5074307;27;96703;-31
2022/12/18 09:20:35;;;;;;;0.00;0.00;;;;;;;-4.74;88.15;102700.13;5074209;27;96895;-34
2022/12/18 09:23:01;;;;;;;0.80;0.55;;;;;;;-4.67;88.05;102692.38;5073652;27;101350;-32
2022/12/18 09:25:31;;;;;;;0.32;0.30;;;;;;;-4.68;87.71;102685.31;5095221;27;97454;-31
2022/12/18 09:27:56;;;;;;;0.25;0.25;;;;;;;-4.72;87.93;102685.22;5077647;27;96793;-33
2022/12/18 09:30:22;;;;;;;1.08;0.35;;;;;;;-4.67;88.27;102700.31;5096242;27;96802;-32
2022/12/18 09:32:47;;;;;;;0.20;0.15;;;;;;;-4.59;88.35;102709.41;5095813;27;109500;-32
2022/12/18 09:35:12;;;;;;;0.00;0.00;;;;;;;-4.57;88.04;102708.59;5095732;27;102938;-31
2022/12/18 09:37:38;;;;;;;0.38;0.22;;;;;;;-4.57;87.91;102689.19;5095994;27;104940;-32
2022/12/18 09:40:04;;;;;;;0.00;0.00;;;;;;;-4.61;88.40;102687.28;5096795;27;96733;-31
2022/12/18 09:42:29;;;;;;;0.20;0.10;;;;;;;-4.58;87.82;102703.25;5095761;27;99244;-31
2022/12/18 09:44:55;;;;;;;0.00;0.00;;;;;;;-4.59;88.19;102707.63;5077361;27;101185;-33
2022/12/18 09:47:26;;;;;;;0.30;0.30;;;;;;;-4.54;87.96;102707.78;5076609;27;97206;-31
2022/12/18 09:50:00;;;;;;;0.08;0.08;;;;;;;-4.47;88.37;102711.53;5096074;27;96789;-33
2022/12/18 09:52:45;;;;;;;0.00;0.00;;;;;;;-4.45;88.29;102716.00;5096128;27;98261;-32
2022/12/18 09:55:35;;;;;;;0.03;0.03;;;;;;;-4.40;88.37;102713.50;5077148;27;100717;-33
2022/12/18 09:58:11;;;;;;;0.22;0.22;;;;;;;-4.38;88.17;102699.47;5095767;27;96467;-31
2022/12/18 10:00:36;;;;;;;0.22;0.20;;;;;;;-4.32;88.11;102696.09;5096186;27;96481;-32
2022/12/18 10:03:13;;;;;;;0.00;0.00;;;;;;;-4.30;88.11;102697.03;5095423;27;99109;-31
2022/12/18 10:05:48;;;;;;;0.00;0.00;;;;;;;-4.31;87.82;102700.56;5077519;27;100543;-32
2022/12/18 10:08:35;;;;;;;0.00;0.00;;;;;;;-4.25;87.96;102697.19;5077207;27;96782;-31
2022/12/18 10:11:15;;;;;;;0.00;0.00;;;;;;;-4.23;88.37;102675.19;5096023;27;96771;-31
2022/12/18 10:13:50;;;;;;;0.00;0.00;;;;;;;-4.22;88.13;102671.69;5095331;27;97922;-31
2022/12/18 10:16:25;;;;;;;0.00;0.00;;;;;;;-4.23;87.78;102664.63;5076950;27;100899;-33
2022/12/18 10:18:59;;;;;;;0.00;0.00;;;;;;;-4.16;87.63;102656.00;5076913;27;96798;-31
2022/12/18 10:21:52;;;;;;;0.00;0.00;;;;;;;-4.12;87.75;102651.72;5095553;27;96819;-32
2022/12/18 10:24:17;;;;;;;0.00;0.00;;;;;;;-4.11;87.93;102650.84;5094625;27;99433;-33
2022/12/18 10:26:44;;;;;;;0.10;0.10;;;;;;;-4.12;87.51;102649.06;5095333;27;97319;-31
2022/12/18 10:29:15;;;;;;;0.10;0.10;;;;;;;-4.09;87.58;102650.03;5076752;27;96723;-32
2022/12/18 10:31:41;;;;;;;0.00;0.00;;;;;;;-4.08;87.55;102645.63;5077344;27;96817;-31
2022/12/18 10:34:12;;;;;;;0.00;0.00;;;;;;;-4.07;87.63;102631.56;5076641;27;101087;-33
2022/12/18 10:36:38;;;;;;;0.00;0.00;;;;;;;-4.03;88.00;102644.00;5094790;27;97865;-31
2022/12/18 10:39:18;;;;;;;0.32;0.28;;;;;;;-4.01;87.75;102654.63;5094630;27;96501;-32
2022/12/18 10:41:44;;;;;;;0.00;0.00;;;;;;;-4.01;87.35;102660.81;5076681;27;97168;-33
2022/12/18 10:44:15;;;;;;;0.00;0.00;;;;;;;-3.96;87.69;102647.72;5076303;27;101181;-32
2022/12/18 10:46:41;;;;;;;0.00;0.00;;;;;;;-3.91;87.66;102640.78;5076381;27;100909;-32
2022/12/18 10:49:19;;;;;;;0.00;0.00;;;;;;;-3.89;88.00;102636.44;5095112;27;96516;-32
2022/12/18 10:51:45;;;;;;;0.00;0.00;;;;;;;-3.85;87.73;102635.69;5076586;27;98443;-33
2022/12/18 10:54:22;;;;;;;0.70;0.25;;;;;;;-3.76;87.81;102635.03;5094925;27;97477;-32
2022/12/18 10:56:48;;;;;;;0.03;0.00;;;;;;;-3.75;87.94;102635.06;5076523;27;100767;-33
2022/12/18 10:59:16;;;;;;;0.38;0.28;;;;;;;-3.77;87.21;102630.59;5094788;27;96619;-31
2022/12/18 11:01:50;;;;;;;0.00;0.00;;;;;;;-3.74;87.20;102638.59;5095001;27;96721;-32
2022/12/18 11:04:31;;;;;;;0.00;0.00;;;;;;;-3.73;87.15;102636.00;5093875;27;99460;-32
2022/12/18 11:07:05;;;;;;;0.10;0.10;;;;;;;-3.68;87.79;102633.47;5094676;27;99284;-31
2022/12/18 11:09:36;;;;;;;0.00;0.00;;;;;;;-3.61;87.69;102635.41;5076260;27;96552;-31
2022/12/18 11:12:06;;;;;;;0.20;0.20;;;;;;;-3.57;87.85;102626.72;5076076;27;96673;-32
2022/12/18 11:14:48;;;;;;;0.25;0.20;;;;;;;-3.52;87.68;102635.66;5075967;27;100963;-31
2022/12/18 11:17:32;;;;;;;0.00;0.00;;;;;;;-3.46;87.59;102626.97;5075959;27;101495;-31
2022/12/18 11:20:19;;;;;;;0.00;0.00;;;;;;;-3.46;87.39;102617.25;5075863;27;96618;-31
2022/12/18 11:22:55;;;;;;;0.00;0.00;;;;;;;-3.39;87.79;102631.56;5076264;27;96762;-31
2022/12/18 11:25:21;;;;;;;0.00;0.00;;;;;;;-3.35;87.50;102619.28;5094083;27;97512;-32
2022/12/18 11:27:59;;;;;;;0.00;0.00;;;;;;;-3.33;87.55;102617.59;5093780;27;99227;-32
2022/12/18 11:30:26;;;;;;;0.00;0.00;;;;;;;-3.31;87.06;102611.47;5075315;27;97890;-31
2022/12/18 11:33:22;;;;;;;0.08;0.08;;;;;;;-3.30;87.31;102609.69;5075779;27;98140;-33
2022/12/18 11:36:03;;;;;;;0.00;0.00;;;;;;;-3.34;87.12;102591.94;5094584;27;97399;-32
2022/12/18 11:38:34;;;;;;;0.17;0.15;;;;;;;-3.28;87.17;102611.53;5075706;27;101155;-31